TimeMST,TemperatureF,Dew PointF,Humidity,Sea Level PressureIn,VisibilityMPH,Wind Direction,Wind SpeedMPH,Gust SpeedMPH,PrecipitationIn,Events,Conditions,WindDirDegrees,DateUTC
12:53 AM,10.0,5.0,80,30.01,10.0,NW,4.6,-,N/A,,Clear,320,2013-11-04 07:53:00
1:53 AM,10.9,6.1,81,30.01,10.0,NNW,4.6,-,N/A,,Clear,340,2013-11-04 08:53:00
2:53 AM,8.1,3.9,83,30.05,10.0,Calm,Calm,-,N/A,,Clear,0,2013-11-04 09:53:00
3:53 AM,7.0,1.9,80,30.06,10.0,East,3.5,-,N/A,,Clear,90,2013-11-04 10:53:00
4:53 AM,7.0,3.0,84,30.08,10.0,ENE,5.8,-,N/A,,Clear,60,2013-11-04 11:53:00
5:53 AM,8.1,3.0,80,30.10,10.0,ENE,6.9,-,N/A,,Clear,70,2013-11-04 12:53:00
6:53 AM,7.0,1.9,80,30.12,10.0,ENE,4.6,-,N/A,,Clear,70,2013-11-04 13:53:00
7:53 AM,9.0,3.0,77,30.14,10.0,Calm,Calm,-,N/A,,Clear,0,2013-11-04 14:53:00
8:53 AM,16.0,10.0,77,30.11,10.0,Calm,Calm,-,N/A,,Clear,0,2013-11-04 15:53:00
9:53 AM,19.0,12.0,74,30.09,10.0,Calm,Calm,-,N/A,,Clear,0,2013-11-04 16:53:00
10:53 AM,24.1,10.9,57,30.08,10.0,SE,4.6,-,N/A,,Clear,140,2013-11-04 17:53:00
11:53 AM,25.0,6.1,45,30.04,10.0,Calm,Calm,-,N/A,,Overcast,0,2013-11-04 18:53:00
12:53 PM,30.0,6.1,36,30.01,10.0,Variable,4.6,-,N/A,,Overcast,0,2013-11-04 19:53:00
1:53 PM,28.9,3.9,35,30.01,10.0,WNW,8.1,-,N/A,,Mostly Cloudy,290,2013-11-04 20:53:00
2:53 PM,28.0,3.9,36,30.03,10.0,WNW,5.8,-,N/A,,Overcast,290,2013-11-04 21:53:00
3:53 PM,28.0,3.0,34,30.04,10.0,WNW,9.2,17.3,N/A,,Mostly Cloudy,290,2013-11-04 22:53:00
4:53 PM,23.0,5.0,46,30.08,10.0,North,4.6,-,N/A,,Mostly Cloudy,350,2013-11-04 23:53:00
5:53 PM,24.1,10.0,55,30.09,10.0,NNW,11.5,-,N/A,,Overcast,340,2013-11-05 00:53:00
6:53 PM,16.0,8.1,71,30.16,10.0,NNW,9.2,-,N/A,,Partly Cloudy,340,2013-11-05 01:53:00
7:53 PM,12.9,6.1,74,30.18,10.0,NNW,8.1,-,N/A,,Clear,330,2013-11-05 02:53:00
8:53 PM,14.0,7.0,74,30.15,10.0,North,8.1,-,N/A,,Clear,350,2013-11-05 03:53:00
9:53 PM,14.0,7.0,74,30.15,10.0,NW,4.6,-,N/A,,Clear,320,2013-11-05 04:53:00
10:53 PM,9.0,3.9,80,30.16,10.0,NNW,4.6,-,N/A,,Clear,330,2013-11-05 05:53:00
11:53 PM,12.9,7.0,77,30.14,10.0,Calm,Calm,-,N/A,,Scattered Clouds,0,2013-11-05 06:53:00